Rowe, Massachusetts
Current Conditions -  °F | °C
As of 5:52 PM on Wednesday 17 Dec 2014 (Local Time) from KAQW Reporting Station
Overcast Overcast  
Wind Chill: 33°   Ceiling: 1900
Heat Index: 38°   Visibility: 10mi
Dew Point: 33°   Wind: 6mph
Humidity: 83%   Direction: NA
Pressure: 29.82"   Gusts: NA
Location:  42.69°N, 72.9°W
Report Text: KAQW 172252Z AUTO VRB05KT 10SM OVC019 03/01 A2982 RMK AO2 SLP104 T00330006
Loading
Personal Weather Stations






























Interactive Weather Map New forecast layout! Learn more

10-Day Weather Forecast

Advertisements
Track Severe Weather on mobile